createdAt,value
2023-04-15T00:00:59.341Z,100955.59
2023-04-15T00:03:26.023Z,100942.31
2023-04-15T00:05:52.733Z,100960.28
2023-04-15T00:08:20.391Z,100954.34
2023-04-15T00:10:46.948Z,100951.66
2023-04-15T00:13:13.472Z,100951.75
2023-04-15T00:15:39.971Z,100959.22
2023-04-15T00:18:07.947Z,100959.34
2023-04-15T00:20:34.822Z,100953.75
2023-04-15T00:23:02.547Z,100953.84
2023-04-15T00:25:29.118Z,100953.00
2023-04-15T00:27:55.600Z,100945.22
2023-04-15T00:30:23.925Z,100951.06
2023-04-15T00:32:50.786Z,100951.47
2023-04-15T00:35:21.591Z,100951.16
2023-04-15T00:37:48.294Z,100950.88
2023-04-15T00:40:18.702Z,100950.03
2023-04-15T00:42:45.501Z,100949.91
2023-04-15T00:45:12.260Z,100945.50
2023-04-15T00:47:41.455Z,100953.84
2023-04-15T00:50:08.680Z,100954.88
2023-04-15T00:52:35.116Z,100960.53
2023-04-15T00:55:02.392Z,100959.97
2023-04-15T00:57:30.109Z,100960.25
2023-04-15T00:59:57.579Z,100960.59
2023-04-15T01:02:24.574Z,100953.69
2023-04-15T01:04:51.361Z,100959.28
2023-04-15T01:07:18.004Z,100962.09
2023-04-15T01:09:45.648Z,100956.94
2023-04-15T01:12:14.181Z,100956.16
2023-04-15T01:14:41.085Z,100962.59
2023-04-15T01:17:07.507Z,100961.03
2023-04-15T01:19:34.026Z,100962.97
2023-04-15T01:22:00.529Z,100958.44
2023-04-15T01:24:28.202Z,100962.19
2023-04-15T01:26:54.855Z,100961.41
2023-04-15T01:29:23.760Z,100960.72
2023-04-15T01:31:52.563Z,100953.63
2023-04-15T01:34:19.339Z,100960.72
2023-04-15T01:36:46.295Z,100958.03
2023-04-15T01:39:14.160Z,100966.19
2023-04-15T01:41:42.240Z,100956.56
2023-04-15T01:44:08.856Z,100958.41
2023-04-15T01:46:37.136Z,100960.31
2023-04-15T01:49:03.637Z,100963.19
2023-04-15T01:51:32.224Z,100965.28
2023-04-15T01:53:59.099Z,100961.03
2023-04-15T01:56:25.627Z,100967.34
2023-04-15T01:58:52.901Z,100957.66
2023-04-15T02:01:20.099Z,100963.28
2023-04-15T02:03:47.909Z,100969.88
2023-04-15T02:06:15.282Z,100960.53
2023-04-15T02:08:41.857Z,100970.56
2023-04-15T02:11:08.410Z,100973.34
2023-04-15T02:13:34.942Z,100970.84
2023-04-15T02:16:01.500Z,100970.31
2023-04-15T02:18:28.220Z,100970.50
2023-04-15T02:20:56.345Z,100976.66
2023-04-15T02:23:22.744Z,100976.66
2023-04-15T02:25:54.061Z,100982.00
2023-04-15T02:28:21.756Z,100982.16
2023-04-15T02:30:52.675Z,100977.84
2023-04-15T02:33:19.565Z,100986.88
2023-04-15T02:35:46.459Z,100990.66
2023-04-15T02:38:14.290Z,100999.06
2023-04-15T02:40:41.062Z,100999.97
2023-04-15T02:43:07.535Z,101005.44
2023-04-15T02:45:34.874Z,101001.34
2023-04-15T02:48:06.300Z,101001.63
2023-04-15T02:50:33.338Z,101015.38
2023-04-15T02:53:01.543Z,101014.13
2023-04-15T02:55:29.177Z,101001.22
2023-04-15T02:57:55.977Z,101016.84
2023-04-15T03:00:25.102Z,101016.22
2023-04-15T03:02:56.376Z,101012.97
2023-04-15T03:05:26.152Z,101021.47
2023-04-15T03:07:53.208Z,101012.75
2023-04-15T03:10:21.241Z,101019.13
2023-04-15T03:12:48.223Z,101026.38
2023-04-15T03:15:19.353Z,101027.41
2023-04-15T03:17:49.722Z,101024.03
2023-04-15T03:20:16.867Z,101033.88
2023-04-15T03:22:43.465Z,101027.63
2023-04-15T03:25:10.112Z,101032.97
2023-04-15T03:27:38.403Z,101032.19
2023-04-15T03:30:06.554Z,101037.72
2023-04-15T03:32:35.524Z,101036.91
2023-04-15T03:35:02.020Z,101032.69
2023-04-15T03:37:28.462Z,101037.25
2023-04-15T03:39:54.942Z,101043.69
2023-04-15T03:42:21.385Z,101037.66
2023-04-15T03:44:47.840Z,101036.94
2023-04-15T03:47:14.342Z,101050.44
2023-04-15T03:49:41.394Z,101059.50
2023-04-15T03:52:07.892Z,101057.16
2023-04-15T03:54:34.276Z,101061.00
2023-04-15T03:57:01.293Z,101061.31
2023-04-15T03:59:27.706Z,101065.84
2023-04-15T04:01:54.199Z,101065.13
2023-04-15T04:04:21.073Z,101072.69
2023-04-15T04:06:47.585Z,101067.53
2023-04-15T04:09:14.028Z,101075.69
2023-04-15T04:11:40.497Z,101080.41
2023-04-15T04:14:06.930Z,101080.47
2023-04-15T04:16:33.394Z,101087.78
2023-04-15T04:19:00.029Z,101081.69
2023-04-15T04:21:26.732Z,101088.09
2023-04-15T04:23:53.206Z,101086.25
2023-04-15T04:26:19.828Z,101096.25
2023-04-15T04:28:46.521Z,101087.34
2023-04-15T04:31:12.949Z,101095.53
2023-04-15T04:33:39.682Z,101100.88
2023-04-15T04:36:06.393Z,101102.81
2023-04-15T04:38:32.852Z,101108.16
2023-04-15T04:40:59.407Z,101104.69
2023-04-15T04:43:26.043Z,101113.66
2023-04-15T04:45:52.521Z,101115.53
2023-04-15T04:48:19.791Z,101125.41
2023-04-15T04:50:47.044Z,101137.97
2023-04-15T04:53:13.602Z,101137.19
2023-04-15T04:55:40.011Z,101142.53
2023-04-15T04:58:06.837Z,101139.84
2023-04-15T05:00:33.566Z,101147.75
2023-04-15T05:03:00.624Z,101157.50
2023-04-15T05:05:27.354Z,101155.69
2023-04-15T05:07:53.781Z,101152.06
2023-04-15T05:10:20.482Z,101153.69
2023-04-15T05:12:47.074Z,101167.56
2023-04-15T05:15:13.581Z,101169.13
2023-04-15T05:17:40.209Z,101174.38
2023-04-15T05:20:07.440Z,101177.63
2023-04-15T05:22:34.041Z,101175.44
2023-04-15T05:25:00.919Z,101181.31
2023-04-15T05:27:27.381Z,101188.25
2023-04-15T05:29:53.774Z,101187.22
2023-04-15T05:32:20.711Z,101196.84
2023-04-15T05:34:48.672Z,101196.63
2023-04-15T05:37:15.578Z,101203.66
2023-04-15T05:39:43.028Z,101207.84
2023-04-15T05:42:09.497Z,101212.03
2023-04-15T05:44:36.115Z,101213.56
2023-04-15T05:47:04.595Z,101223.97
2023-04-15T05:49:31.120Z,101227.28
2023-04-15T05:51:57.643Z,101227.94
2023-04-15T05:54:24.269Z,101232.22
2023-04-15T05:56:50.950Z,101223.94
2023-04-15T05:59:17.369Z,101237.81
2023-04-15T06:01:45.172Z,101236.75
2023-04-15T06:04:12.168Z,101241.84
2023-04-15T06:06:38.691Z,101244.13
2023-04-15T06:09:05.264Z,101249.97
2023-04-15T06:11:31.827Z,101245.91
2023-04-15T06:13:58.297Z,101255.84
2023-04-15T06:16:24.906Z,101259.38
2023-04-15T06:18:51.350Z,101260.09
2023-04-15T06:21:17.888Z,101260.56
2023-04-15T06:23:44.359Z,101259.47
2023-04-15T06:26:11.468Z,101263.63
2023-04-15T06:28:38.002Z,101275.50
2023-04-15T06:31:04.629Z,101271.34
2023-04-15T06:33:31.900Z,101268.16
2023-04-15T06:35:58.378Z,101271.84
2023-04-15T06:38:24.854Z,101269.50
2023-04-15T06:40:51.508Z,101272.88
2023-04-15T06:43:20.191Z,101274.81
2023-04-15T06:45:47.191Z,101278.97
2023-04-15T06:48:13.832Z,101284.56
2023-04-15T06:50:40.628Z,101284.78
2023-04-15T06:53:07.495Z,101286.69
2023-04-15T06:55:34.350Z,101290.75
2023-04-15T06:58:00.900Z,101291.88
2023-04-15T07:00:28.590Z,101294.88
2023-04-15T07:02:55.662Z,101292.00
2023-04-15T07:05:22.176Z,101291.97
2023-04-15T07:07:48.601Z,101301.34
2023-04-15T07:10:15.868Z,101297.53
2023-04-15T07:12:42.426Z,101305.22
2023-04-15T07:15:09.124Z,101309.31
2023-04-15T07:17:35.643Z,101313.41
2023-04-15T07:20:02.558Z,101327.25
2023-04-15T07:22:30.027Z,101328.81
2023-04-15T07:24:56.602Z,101330.69
2023-04-15T07:27:23.146Z,101335.44
2023-04-15T07:29:51.414Z,101341.09
2023-04-15T07:32:18.197Z,101342.09
2023-04-15T07:34:44.790Z,101335.28
2023-04-15T07:37:11.446Z,101335.00
2023-04-15T07:39:38.201Z,101339.72
2023-04-15T07:42:05.039Z,101329.31
2023-04-15T07:44:31.608Z,101329.78
2023-04-15T07:46:58.096Z,101334.97
2023-04-15T07:49:26.650Z,101332.53
2023-04-15T07:51:53.263Z,101345.84
2023-04-15T07:54:19.780Z,101342.28
2023-04-15T07:56:46.180Z,101347.59
2023-04-15T07:59:13.039Z,101348.34
2023-04-15T08:01:39.540Z,101358.28
2023-04-15T08:04:06.218Z,101358.94
2023-04-15T08:06:33.270Z,101365.69
2023-04-15T08:09:00.341Z,101372.44
2023-04-15T08:11:28.656Z,101368.16
2023-04-15T08:13:55.314Z,101366.53
2023-04-15T08:16:27.697Z,101368.53
2023-04-15T08:18:55.991Z,101382.53
2023-04-15T08:21:22.814Z,101389.13
2023-04-15T08:23:51.347Z,101378.81
2023-04-15T08:26:18.836Z,101379.59
2023-04-15T08:28:46.232Z,101381.47
2023-04-15T08:31:14.793Z,101384.13
2023-04-15T08:33:41.390Z,101382.34
2023-04-15T08:36:08.483Z,101387.69
2023-04-15T08:38:35.473Z,101390.34
2023-04-15T08:41:07.308Z,101395.38
2023-04-15T08:43:35.492Z,101400.69
2023-04-15T08:46:02.263Z,101406.03
2023-04-15T08:48:29.637Z,101414.34
2023-04-15T08:50:56.853Z,101428.03
2023-04-15T08:53:24.674Z,101429.97
2023-04-15T08:55:57.236Z,101447.22
2023-04-15T08:58:24.600Z,101439.72
2023-04-15T09:00:51.127Z,101446.78
2023-04-15T09:03:17.873Z,101444.75
2023-04-15T09:05:44.903Z,101445.34
2023-04-15T09:08:11.900Z,101451.16
2023-04-15T09:10:38.423Z,101446.63
2023-04-15T09:13:05.744Z,101450.13
2023-04-15T09:15:33.071Z,101452.47
2023-04-15T09:17:59.548Z,101463.19
2023-04-15T09:20:26.342Z,101460.44
2023-04-15T09:22:52.877Z,101468.84
2023-04-15T09:25:30.026Z,101467.28
2023-04-15T09:28:01.629Z,101473.78
2023-04-15T09:30:29.535Z,101478.16
2023-04-15T09:33:02.382Z,101484.50
2023-04-15T09:35:29.079Z,101475.25
2023-04-15T09:38:07.384Z,101486.94
2023-04-15T09:40:41.043Z,101495.56
2023-04-15T09:43:09.690Z,101490.00
2023-04-15T09:45:36.535Z,101489.59
2023-04-15T09:48:23.448Z,101496.06
2023-04-15T09:50:50.455Z,101494.75
2023-04-15T09:53:19.132Z,101491.13
2023-04-15T09:55:46.894Z,101491.75
2023-04-15T09:58:24.536Z,101497.88
2023-04-15T10:00:52.427Z,101503.34
2023-04-15T10:03:24.780Z,101506.00
2023-04-15T10:05:57.432Z,101511.63
2023-04-15T10:08:26.060Z,101508.91
2023-04-15T10:10:53.608Z,101511.16
2023-04-15T10:13:24.804Z,101516.25
2023-04-15T10:16:10.833Z,101518.09
2023-04-15T10:18:42.901Z,101516.47
2023-04-15T10:21:10.211Z,101515.06
2023-04-15T10:23:37.978Z,101523.38
2023-04-15T10:26:07.057Z,101516.94
2023-04-15T10:28:33.511Z,101516.78
2023-04-15T10:31:00.623Z,101512.91
2023-04-15T10:33:28.832Z,101518.16
2023-04-15T10:35:55.930Z,101520.69
2023-04-15T10:38:43.180Z,101526.28
2023-04-15T10:41:14.275Z,101533.09
2023-04-15T10:43:52.859Z,101530.78
2023-04-15T10:46:40.417Z,101524.09
2023-04-15T10:49:25.856Z,101540.47
2023-04-15T10:51:57.670Z,101541.94
2023-04-15T10:54:27.205Z,101549.56
2023-04-15T10:57:10.475Z,101543.63
2023-04-15T10:59:39.089Z,101548.44
2023-04-15T11:02:07.422Z,101555.59
2023-04-15T11:04:53.310Z,101557.31
2023-04-15T11:07:41.958Z,101551.44
2023-04-15T11:10:17.402Z,101552.50
2023-04-15T11:12:50.811Z,101556.78
2023-04-15T11:15:43.017Z,101558.09
2023-04-15T11:18:18.492Z,101557.22
2023-04-15T11:20:47.343Z,101568.53
2023-04-15T11:23:19.561Z,101564.84
2023-04-15T11:25:46.498Z,101574.28
2023-04-15T11:28:13.544Z,101567.31
2023-04-15T11:30:42.100Z,101562.28
2023-04-15T11:33:10.347Z,101566.53
2023-04-15T11:35:37.068Z,101573.41
2023-04-15T11:38:10.292Z,101568.38
2023-04-15T11:40:38.346Z,101573.50
2023-04-15T11:43:13.780Z,101577.03
2023-04-15T11:45:55.912Z,101570.56
2023-04-15T11:48:28.229Z,101573.63
2023-04-15T11:51:07.808Z,101575.53
2023-04-15T11:53:42.598Z,101578.00
2023-04-15T11:56:24.242Z,101578.72
2023-04-15T11:58:59.352Z,101596.09
2023-04-15T12:01:39.876Z,101582.00
2023-04-15T12:04:20.173Z,101584.25
2023-04-15T12:06:49.334Z,101599.78
2023-04-15T12:09:16.666Z,101601.56
2023-04-15T12:11:48.472Z,101608.78
2023-04-15T12:14:24.419Z,101608.88
2023-04-15T12:16:54.148Z,101617.69
2023-04-15T12:19:31.805Z,101620.56
2023-04-15T12:22:01.025Z,101619.97
2023-04-15T12:24:28.355Z,101621.31
2023-04-15T12:26:57.667Z,101624.56
2023-04-15T12:29:29.040Z,101639.03
2023-04-15T12:32:05.937Z,101640.19
2023-04-15T12:34:58.173Z,101645.81
2023-04-15T12:37:24.755Z,101640.06
2023-04-15T12:39:52.236Z,101645.03
2023-04-15T12:42:18.854Z,101640.66
2023-04-15T12:44:46.172Z,101661.41
2023-04-15T12:47:15.356Z,101646.44
2023-04-15T12:49:41.996Z,101659.72
2023-04-15T12:52:08.828Z,101663.56
2023-04-15T12:54:36.055Z,101661.25
2023-04-15T12:57:05.979Z,101669.44
2023-04-15T12:59:33.206Z,101674.84
2023-04-15T13:02:00.800Z,101672.91
2023-04-15T13:04:30.525Z,101673.16
2023-04-15T13:06:57.581Z,101680.44
2023-04-15T13:09:24.060Z,101680.09
2023-04-15T13:11:51.003Z,101681.06
2023-04-15T13:14:17.694Z,101698.03
2023-04-15T13:16:44.210Z,101699.63
2023-04-15T13:19:10.682Z,101704.56
2023-04-15T13:21:37.262Z,101704.44
2023-04-15T13:24:04.831Z,101709.88
2023-04-15T13:26:32.095Z,101714.31
2023-04-15T13:28:59.759Z,101713.31
2023-04-15T13:31:27.102Z,101718.16
2023-04-15T13:33:53.562Z,101717.78
2023-04-15T13:36:19.995Z,101714.47
2023-04-15T13:38:47.124Z,101720.75
2023-04-15T13:41:14.411Z,101724.81
2023-04-15T13:43:41.469Z,101732.19
2023-04-15T13:46:08.022Z,101726.13
2023-04-15T13:48:34.479Z,101738.97
2023-04-15T13:51:01.071Z,101742.16
2023-04-15T13:53:37.631Z,101742.78
2023-04-15T13:56:09.642Z,101738.38
2023-04-15T13:58:37.391Z,101757.56
2023-04-15T14:01:06.086Z,101752.09
2023-04-15T14:03:33.667Z,101759.97
2023-04-15T14:06:00.611Z,101745.78
2023-04-15T14:08:27.040Z,101756.84
2023-04-15T14:10:53.502Z,101746.09
2023-04-15T14:13:19.945Z,101769.53
2023-04-15T14:15:47.197Z,101771.72
2023-04-15T14:18:13.658Z,101776.84
2023-04-15T14:20:40.098Z,101792.16
2023-04-15T14:23:06.753Z,101784.38
2023-04-15T14:25:34.197Z,101785.34
2023-04-15T14:28:01.666Z,101792.50
2023-04-15T14:30:28.258Z,101804.09
2023-04-15T14:32:54.761Z,101809.53
2023-04-15T14:35:21.472Z,101804.22
2023-04-15T14:37:47.889Z,101810.63
2023-04-15T14:40:14.649Z,101809.41
2023-04-15T14:42:41.114Z,101806.94
2023-04-15T14:45:08.271Z,101813.31
2023-04-15T14:47:34.827Z,101810.75
2023-04-15T14:50:02.313Z,101820.91
2023-04-15T14:52:28.868Z,101818.28
2023-04-15T14:54:55.398Z,101830.84
2023-04-15T14:57:21.833Z,101840.91
2023-04-15T14:59:48.221Z,101842.50
2023-04-15T15:02:17.290Z,101850.13
2023-04-15T15:04:53.050Z,101853.00
2023-04-15T15:07:19.637Z,101858.88
2023-04-15T15:09:46.767Z,101848.53
2023-04-15T15:12:13.297Z,101853.78
2023-04-15T15:14:39.704Z,101855.13
2023-04-15T15:17:06.305Z,101863.13
2023-04-15T15:19:33.061Z,101862.19
2023-04-15T15:21:59.477Z,101867.25
2023-04-15T15:24:26.137Z,101869.41
2023-04-15T15:26:52.638Z,101882.25
2023-04-15T15:29:19.091Z,101871.94
2023-04-15T15:31:45.623Z,101883.75
2023-04-15T15:34:12.270Z,101879.97
2023-04-15T15:36:38.701Z,101883.91
2023-04-15T15:39:05.358Z,101887.72
2023-04-15T15:41:33.267Z,101884.88
2023-04-15T15:43:59.947Z,101887.28
2023-04-15T15:46:28.256Z,101884.56
2023-04-15T15:48:54.897Z,101885.94
2023-04-15T15:51:21.331Z,101898.69
2023-04-15T15:53:49.736Z,101890.28
2023-04-15T15:56:16.319Z,101908.06
2023-04-15T15:58:45.433Z,101908.72
2023-04-15T16:01:12.238Z,101912.25
2023-04-15T16:03:39.490Z,101902.22
2023-04-15T16:06:06.028Z,101906.31
2023-04-15T16:08:32.496Z,101918.53
2023-04-15T16:10:58.985Z,101916.59
2023-04-15T16:13:25.562Z,101927.09
2023-04-15T16:15:52.005Z,101924.56
2023-04-15T16:18:18.672Z,101932.09
2023-04-15T16:20:45.200Z,101932.81
2023-04-15T16:23:16.281Z,101941.09
2023-04-15T16:25:44.402Z,101939.69
2023-04-15T16:28:25.093Z,101937.88
2023-04-15T16:30:52.708Z,101954.31
2023-04-15T16:33:19.294Z,101945.63
2023-04-15T16:35:45.783Z,101957.56
2023-04-15T16:38:12.263Z,101955.75
2023-04-15T16:40:38.789Z,101963.47
2023-04-15T16:43:07.325Z,101971.06
2023-04-15T16:45:33.974Z,101975.09
2023-04-15T16:48:00.536Z,101978.09
2023-04-15T16:50:27.229Z,101977.31
2023-04-15T16:52:54.116Z,101988.31
2023-04-15T16:55:20.615Z,101979.59
2023-04-15T16:58:02.320Z,101981.69
2023-04-15T17:00:31.477Z,101982.25
2023-04-15T17:02:58.965Z,101976.13
2023-04-15T17:05:27.519Z,101991.47
2023-04-15T17:07:54.318Z,101983.78
2023-04-15T17:10:20.996Z,101993.22
2023-04-15T17:12:51.901Z,101985.13
2023-04-15T17:15:19.642Z,101989.13
2023-04-15T17:17:46.179Z,101992.69
2023-04-15T17:20:12.630Z,102000.94
2023-04-15T17:22:39.172Z,101993.19
2023-04-15T17:25:06.124Z,102002.41
2023-04-15T17:27:32.534Z,102006.75
2023-04-15T17:29:59.032Z,102003.03
2023-04-15T17:32:31.543Z,102006.59
2023-04-15T17:34:58.223Z,102012.69
2023-04-15T17:37:24.702Z,102004.28
2023-04-15T17:39:52.058Z,102013.50
2023-04-15T17:42:18.588Z,102015.50
2023-04-15T17:44:45.822Z,102011.28
2023-04-15T17:47:12.505Z,102018.34
2023-04-15T17:49:39.017Z,102025.31
2023-04-15T17:52:05.868Z,102030.16
2023-04-15T17:54:32.436Z,102026.75
2023-04-15T17:57:00.029Z,102047.22
2023-04-15T17:59:27.619Z,102037.78
2023-04-15T18:01:54.194Z,102045.69
2023-04-15T18:04:21.754Z,102043.31
2023-04-15T18:06:49.193Z,102039.84
2023-04-15T18:09:15.690Z,102049.81
2023-04-15T18:11:43.896Z,102043.88
2023-04-15T18:14:11.320Z,102054.56
2023-04-15T18:16:40.123Z,102060.75
2023-04-15T18:19:06.679Z,102054.88
2023-04-15T18:21:33.181Z,102058.53
2023-04-15T18:23:59.674Z,102061.22
2023-04-15T18:26:27.532Z,102056.81
2023-04-15T18:28:55.002Z,102060.25
2023-04-15T18:31:21.522Z,102066.69
2023-04-15T18:33:48.082Z,102072.47
2023-04-15T18:36:14.830Z,102081.66
2023-04-15T18:38:41.406Z,102076.28
2023-04-15T18:41:09.989Z,102076.72
2023-04-15T18:43:36.689Z,102081.38
2023-04-15T18:46:08.380Z,102079.50
2023-04-15T18:48:34.906Z,102093.34
2023-04-15T18:51:01.461Z,102089.22
2023-04-15T18:53:28.084Z,102089.66
2023-04-15T18:55:56.212Z,102097.72
2023-04-15T18:58:22.666Z,102104.06
2023-04-15T19:00:49.187Z,102103.75
2023-04-15T19:03:15.897Z,102107.78
2023-04-15T19:05:42.500Z,102114.84
2023-04-15T19:08:09.076Z,102116.72
2023-04-15T19:10:35.626Z,102112.50
2023-04-15T19:13:04.232Z,102117.97
2023-04-15T19:15:31.060Z,102110.03
2023-04-15T19:17:57.475Z,102105.78
2023-04-15T19:20:23.995Z,102119.28
2023-04-15T19:22:50.705Z,102119.16
2023-04-15T19:25:17.350Z,102113.88
2023-04-15T19:27:43.834Z,102131.72
2023-04-15T19:30:10.298Z,102121.19
2023-04-15T19:32:36.835Z,102128.59
2023-04-15T19:35:07.577Z,102125.91
2023-04-15T19:37:35.273Z,102132.06
2023-04-15T19:40:01.781Z,102133.91
2023-04-15T19:42:28.433Z,102135.72
2023-04-15T19:44:55.055Z,102135.72
2023-04-15T19:47:22.442Z,102135.94
2023-04-15T19:49:50.353Z,102140.44
2023-04-15T19:52:18.654Z,102142.25
2023-04-15T19:54:45.136Z,102152.94
2023-04-15T19:57:11.746Z,102145.03
2023-04-15T19:59:38.316Z,102146.06
2023-04-15T20:02:07.136Z,102154.94
2023-04-15T20:04:34.005Z,102148.69
2023-04-15T20:07:00.573Z,102158.56
2023-04-15T20:09:27.031Z,102155.88
2023-04-15T20:12:10.040Z,102148.81
2023-04-15T20:14:40.052Z,102154.78
2023-04-15T20:17:06.502Z,102147.53
2023-04-15T20:19:33.312Z,102152.03
2023-04-15T20:21:59.766Z,102152.84
2023-04-15T20:24:26.325Z,102149.25
2023-04-15T20:26:52.734Z,102162.88
2023-04-15T20:29:19.225Z,102149.56
2023-04-15T20:31:45.820Z,102160.19
2023-04-15T20:34:12.438Z,102160.97
2023-04-15T20:36:38.951Z,102161.75
2023-04-15T20:39:05.755Z,102165.19
2023-04-15T20:41:32.389Z,102152.84
2023-04-15T20:43:58.781Z,102164.44
2023-04-15T20:46:27.318Z,102148.38
2023-04-15T20:48:54.222Z,102156.53
2023-04-15T20:51:20.796Z,102158.34
2023-04-15T20:53:47.266Z,102169.97
2023-04-15T20:56:13.716Z,102168.25
2023-04-15T20:58:40.336Z,102164.59
2023-04-15T21:01:06.814Z,102156.53
2023-04-15T21:03:33.697Z,102164.75
2023-04-15T21:06:00.414Z,102163.88
2023-04-15T21:08:29.598Z,102169.31
2023-04-15T21:10:56.801Z,102178.22
2023-04-15T21:13:23.937Z,102172.75
2023-04-15T21:15:53.319Z,102181.56
2023-04-15T21:18:21.218Z,102172.75
2023-04-15T21:20:56.491Z,102181.72
2023-04-15T21:23:23.005Z,102178.22
2023-04-15T21:25:49.411Z,102175.66
2023-04-15T21:28:15.844Z,102177.41
2023-04-15T21:30:42.338Z,102179.34
2023-04-15T21:33:09.020Z,102181.19
2023-04-15T21:35:35.620Z,102184.81
2023-04-15T21:38:02.178Z,102188.53
2023-04-15T21:40:29.647Z,102190.19
2023-04-15T21:42:56.171Z,102181.31
2023-04-15T21:45:22.627Z,102183.16
2023-04-15T21:48:01.249Z,102183.25
2023-04-15T21:50:36.760Z,102181.44
2023-04-15T21:53:04.042Z,102179.66
2023-04-15T21:55:30.540Z,102188.59
2023-04-15T21:57:58.003Z,102185.03
2023-04-15T22:00:24.796Z,102198.47
2023-04-15T22:02:51.785Z,102200.16
2023-04-15T22:05:18.383Z,102200.88
2023-04-15T22:07:44.958Z,102208.09
2023-04-15T22:10:11.669Z,102203.66
2023-04-15T22:12:41.752Z,102206.34
2023-04-15T22:15:08.676Z,102215.06
2023-04-15T22:17:35.326Z,102207.81
2023-04-15T22:20:02.321Z,102221.34
2023-04-15T22:22:37.724Z,102207.00
2023-04-15T22:25:11.111Z,102213.13
2023-04-15T22:27:37.531Z,102215.88
2023-04-15T22:30:04.966Z,102213.41
2023-04-15T22:32:31.559Z,102208.94
2023-04-15T22:34:58.070Z,102217.84
2023-04-15T22:37:24.648Z,102219.66
2023-04-15T22:39:51.772Z,102217.03
2023-04-15T22:42:18.279Z,102225.19
2023-04-15T22:44:44.686Z,102224.09
2023-04-15T22:47:11.227Z,102222.16
2023-04-15T22:49:37.737Z,102220.31
2023-04-15T22:52:04.338Z,102223.97
2023-04-15T22:54:31.121Z,102221.28
2023-04-15T22:56:57.853Z,102223.00
2023-04-15T22:59:24.495Z,102224.78
2023-04-15T23:01:51.127Z,102232.69
2023-04-15T23:04:27.464Z,102234.50
2023-04-15T23:06:54.582Z,102241.50
2023-04-15T23:09:21.450Z,102240.56
2023-04-15T23:11:47.950Z,102242.41
2023-04-15T23:14:14.347Z,102253.28
2023-04-15T23:16:40.894Z,102254.16
2023-04-15T23:19:07.958Z,102251.69
2023-04-15T23:21:34.789Z,102259.91
2023-04-15T23:24:01.711Z,102258.13
2023-04-15T23:26:28.271Z,102259.09
2023-04-15T23:28:55.661Z,102252.75
2023-04-15T23:31:22.150Z,102259.03
2023-04-15T23:33:48.613Z,102258.06
2023-04-15T23:36:15.125Z,102260.63
2023-04-15T23:38:42.056Z,102265.16
2023-04-15T23:41:09.834Z,102267.78
2023-04-15T23:43:36.561Z,102255.22
2023-04-15T23:46:03.348Z,102268.84
2023-04-15T23:48:30.084Z,102274.34
2023-04-15T23:50:56.823Z,102271.59
2023-04-15T23:53:23.591Z,102273.41
2023-04-15T23:55:50.014Z,102267.09
2023-04-15T23:58:16.433Z,102270.84
